sensor_id;sensor_type;location;lat;lon;timestamp;pressure;altitude;pressure_sealevel;temperature;humidity
39699;BME280;25372;50.582;12.250;2023-03-20T00:01:51;99837.06;;;7.76;84.11
39699;BME280;25372;50.582;12.250;2023-03-20T00:12:13;99848.22;;;7.44;84.91
39699;BME280;25372;50.582;12.250;2023-03-20T00:22:36;99849.59;;;7.34;85.18
39699;BME280;25372;50.582;12.250;2023-03-20T00:32:57;99852.97;;;7.71;84.09
39699;BME280;25372;50.582;12.250;2023-03-20T00:43:20;99853.31;;;7.98;82.44
39699;BME280;25372;50.582;12.250;2023-03-20T00:53:41;99849.38;;;7.90;81.64
39699;BME280;25372;50.582;12.250;2023-03-20T01:04:08;99846.16;;;8.18;79.37
39699;BME280;25372;50.582;12.250;2023-03-20T01:14:31;99842.47;;;8.38;78.37
39699;BME280;25372;50.582;12.250;2023-03-20T01:24:53;99839.56;;;8.11;79.69
39699;BME280;25372;50.582;12.250;2023-03-20T01:35:15;99839.53;;;7.95;80.05
39699;BME280;25372;50.582;12.250;2023-03-20T01:45:43;99831.69;;;7.95;79.95
39699;BME280;25372;50.582;12.250;2023-03-20T01:56:10;99834.09;;;7.82;79.87
39699;BME280;25372;50.582;12.250;2023-03-20T02:06:39;99837.97;;;8.08;78.71
39699;BME280;25372;50.582;12.250;2023-03-20T02:17:14;99835.53;;;8.05;79.26
39699;BME280;25372;50.582;12.250;2023-03-20T02:27:56;99840.13;;;8.00;79.97
39699;BME280;25372;50.582;12.250;2023-03-20T02:38:59;99831.78;;;7.93;80.04
39699;BME280;25372;50.582;12.250;2023-03-20T02:49:39;99836.66;;;7.83;79.74
39699;BME280;25372;50.582;12.250;2023-03-20T03:00:11;99836.88;;;7.96;79.51
39699;BME280;25372;50.582;12.250;2023-03-20T03:10:35;99829.78;;;7.98;79.30
39699;BME280;25372;50.582;12.250;2023-03-20T03:21:02;99822.06;;;7.95;79.60
39699;BME280;25372;50.582;12.250;2023-03-20T03:31:29;99828.09;;;7.97;79.09
39699;BME280;25372;50.582;12.250;2023-03-20T03:41:55;99823.13;;;8.09;78.80
39699;BME280;25372;50.582;12.250;2023-03-20T03:52:22;99821.78;;;8.18;77.76
39699;BME280;25372;50.582;12.250;2023-03-20T04:02:49;99818.00;;;8.23;78.32
39699;BME280;25372;50.582;12.250;2023-03-20T04:13:11;99825.25;;;8.34;77.54
39699;BME280;25372;50.582;12.250;2023-03-20T04:23:33;99834.44;;;8.42;77.30
39699;BME280;25372;50.582;12.250;2023-03-20T04:33:54;99842.91;;;8.31;77.71
39699;BME280;25372;50.582;12.250;2023-03-20T04:44:20;99842.09;;;8.12;78.17
39699;BME280;25372;50.582;12.250;2023-03-20T04:54:42;99852.28;;;8.01;78.84
39699;BME280;25372;50.582;12.250;2023-03-20T05:05:04;99855.50;;;8.06;78.46
39699;BME280;25372;50.582;12.250;2023-03-20T05:15:28;99862.38;;;8.09;78.17
39699;BME280;25372;50.582;12.250;2023-03-20T05:26:10;99879.56;;;8.13;78.07
39699;BME280;25372;50.582;12.250;2023-03-20T05:36:49;99894.06;;;8.36;76.91
39699;BME280;25372;50.582;12.250;2023-03-20T05:47:26;99895.44;;;8.60;76.47
39699;BME280;25372;50.582;12.250;2023-03-20T05:57:54;99910.22;;;8.61;76.46
39699;BME280;25372;50.582;12.250;2023-03-20T06:08:43;99916.03;;;8.50;76.33
39699;BME280;25372;50.582;12.250;2023-03-20T06:19:04;99916.41;;;8.76;75.92
39699;BME280;25372;50.582;12.250;2023-03-20T06:29:26;99920.81;;;8.75;74.94
39699;BME280;25372;50.582;12.250;2023-03-20T06:39:56;99921.88;;;8.87;74.69
39699;BME280;25372;50.582;12.250;2023-03-20T06:50:19;99921.28;;;9.14;73.70
39699;BME280;25372;50.582;12.250;2023-03-20T07:00:40;99918.28;;;9.67;72.34
39699;BME280;25372;50.582;12.250;2023-03-20T07:11:04;99916.84;;;9.92;72.16
39699;BME280;25372;50.582;12.250;2023-03-20T07:21:25;99924.47;;;10.55;70.28
39699;BME280;25372;50.582;12.250;2023-03-20T07:31:49;99926.06;;;10.99;69.45
39699;BME280;25372;50.582;12.250;2023-03-20T07:42:17;99940.41;;;11.89;67.19
39699;BME280;25372;50.582;12.250;2023-03-20T07:52:47;99940.59;;;12.77;64.46
39699;BME280;25372;50.582;12.250;2023-03-20T08:03:09;99950.78;;;12.18;65.17
39699;BME280;25372;50.582;12.250;2023-03-20T08:13:31;99947.09;;;12.08;66.46
39699;BME280;25372;50.582;12.250;2023-03-20T08:23:51;99952.56;;;12.94;63.26
39699;BME280;25372;50.582;12.250;2023-03-20T08:34:14;99954.16;;;12.07;66.08
39699;BME280;25372;50.582;12.250;2023-03-20T08:44:34;99959.78;;;12.66;65.07
39699;BME280;25372;50.582;12.250;2023-03-20T08:54:56;99961.00;;;11.69;67.03
39699;BME280;25372;50.582;12.250;2023-03-20T09:05:17;99975.34;;;11.78;67.51
39699;BME280;25372;50.582;12.250;2023-03-20T09:15:39;99962.66;;;12.24;66.78
39699;BME280;25372;50.582;12.250;2023-03-20T09:26:00;99971.66;;;12.84;65.06
39699;BME280;25372;50.582;12.250;2023-03-20T09:36:22;99952.81;;;12.65;64.32
39699;BME280;25372;50.582;12.250;2023-03-20T09:47:05;99986.59;;;12.97;63.88
39699;BME280;25372;50.582;12.250;2023-03-20T09:57:39;99990.56;;;13.03;64.26
39699;BME280;25372;50.582;12.250;2023-03-20T10:08:01;99976.56;;;12.52;66.44
39699;BME280;25372;50.582;12.250;2023-03-20T10:18:27;99951.13;;;12.77;64.53
39699;BME280;25372;50.582;12.250;2023-03-20T10:28:52;99990.41;;;13.79;62.24
39699;BME280;25372;50.582;12.250;2023-03-20T10:39:22;99985.59;;;14.31;61.23
39699;BME280;25372;50.582;12.250;2023-03-20T10:49:51;99995.34;;;13.59;62.20
39699;BME280;25372;50.582;12.250;2023-03-20T11:00:16;99983.47;;;13.16;64.30
39699;BME280;25372;50.582;12.250;2023-03-20T11:10:40;99991.38;;;13.53;63.84
39699;BME280;25372;50.582;12.250;2023-03-20T11:21:03;99975.72;;;12.51;66.09
39699;BME280;25372;50.582;12.250;2023-03-20T11:31:28;99972.94;;;12.66;65.74
39699;BME280;25372;50.582;12.250;2023-03-20T11:41:54;99967.03;;;13.37;64.68
39699;BME280;25372;50.582;12.250;2023-03-20T11:52:20;99967.56;;;13.66;63.51
39699;BME280;25372;50.582;12.250;2023-03-20T12:02:43;99963.00;;;12.95;65.17
39699;BME280;25372;50.582;12.250;2023-03-20T12:13:09;99956.50;;;13.12;64.46
39699;BME280;25372;50.582;12.250;2023-03-20T12:23:37;99948.72;;;13.35;64.31
39699;BME280;25372;50.582;12.250;2023-03-20T12:34:02;99947.09;;;12.34;67.37
39699;BME280;25372;50.582;12.250;2023-03-20T12:44:38;99939.75;;;11.72;70.67
39699;BME280;25372;50.582;12.250;2023-03-20T12:55:11;99942.53;;;13.23;65.53
39699;BME280;25372;50.582;12.250;2023-03-20T13:05:44;99927.47;;;12.88;65.61
39699;BME280;25372;50.582;12.250;2023-03-20T13:16:12;99909.31;;;13.21;64.84
39699;BME280;25372;50.582;12.250;2023-03-20T13:26:42;99900.91;;;12.54;66.38
39699;BME280;25372;50.582;12.250;2023-03-20T13:37:12;99886.06;;;12.53;66.83
39699;BME280;25372;50.582;12.250;2023-03-20T13:47:37;99888.66;;;12.02;69.07
39699;BME280;25372;50.582;12.250;2023-03-20T13:58:10;99891.56;;;11.98;69.67
39699;BME280;25372;50.582;12.250;2023-03-20T14:08:35;99888.41;;;11.67;70.55
39699;BME280;25372;50.582;12.250;2023-03-20T14:19:05;99889.81;;;11.32;71.66
39699;BME280;25372;50.582;12.250;2023-03-20T14:29:36;99905.13;;;10.70;74.52
39699;BME280;25372;50.582;12.250;2023-03-20T14:40:02;99901.31;;;10.18;79.80
39699;BME280;25372;50.582;12.250;2023-03-20T14:50:30;99886.13;;;9.94;79.64
39699;BME280;25372;50.582;12.250;2023-03-20T15:00:53;99894.66;;;9.52;81.68
39699;BME280;25372;50.582;12.250;2023-03-20T15:11:17;99904.50;;;9.33;85.38
39699;BME280;25372;50.582;12.250;2023-03-20T15:21:40;99904.88;;;9.27;85.84
39699;BME280;25372;50.582;12.250;2023-03-20T15:32:05;99895.94;;;9.45;85.15
39699;BME280;25372;50.582;12.250;2023-03-20T15:42:26;99892.66;;;9.42;85.38
39699;BME280;25372;50.582;12.250;2023-03-20T15:52:50;99888.03;;;9.31;85.67
39699;BME280;25372;50.582;12.250;2023-03-20T16:03:14;99894.53;;;9.23;84.44
39699;BME280;25372;50.582;12.250;2023-03-20T16:13:40;99897.38;;;8.88;87.33
39699;BME280;25372;50.582;12.250;2023-03-20T16:24:06;99895.78;;;9.02;86.99
39699;BME280;25372;50.582;12.250;2023-03-20T16:34:33;99887.81;;;9.03;85.18
39699;BME280;25372;50.582;12.250;2023-03-20T16:44:57;99891.06;;;8.76;87.22
39699;BME280;25372;50.582;12.250;2023-03-20T16:55:23;99882.03;;;8.66;86.20
39699;BME280;25372;50.582;12.250;2023-03-20T17:05:49;99885.31;;;8.53;86.63
39699;BME280;25372;50.582;12.250;2023-03-20T17:16:13;99891.31;;;8.56;85.84
39699;BME280;25372;50.582;12.250;2023-03-20T17:26:35;99891.41;;;8.20;87.54
39699;BME280;25372;50.582;12.250;2023-03-20T17:36:57;99894.16;;;8.17;87.61
39699;BME280;25372;50.582;12.250;2023-03-20T17:47:24;99887.34;;;8.15;87.40
39699;BME280;25372;50.582;12.250;2023-03-20T17:57:46;99878.13;;;8.07;86.66
39699;BME280;25372;50.582;12.250;2023-03-20T18:08:12;99880.97;;;8.03;86.43
39699;BME280;25372;50.582;12.250;2023-03-20T18:18:35;99884.75;;;8.15;85.50
39699;BME280;25372;50.582;12.250;2023-03-20T18:28:55;99884.63;;;8.16;84.87
39699;BME280;25372;50.582;12.250;2023-03-20T18:39:18;99887.25;;;8.16;84.67
39699;BME280;25372;50.582;12.250;2023-03-20T18:49:39;99887.59;;;8.10;84.33
39699;BME280;25372;50.582;12.250;2023-03-20T19:00:02;99906.31;;;8.02;84.73
39699;BME280;25372;50.582;12.250;2023-03-20T19:10:27;99912.69;;;7.96;84.11
39699;BME280;25372;50.582;12.250;2023-03-20T19:20:50;99895.56;;;8.07;84.14
39699;BME280;25372;50.582;12.250;2023-03-20T19:31:12;99891.22;;;7.90;84.39
39699;BME280;25372;50.582;12.250;2023-03-20T19:41:34;99883.16;;;7.94;84.37
39699;BME280;25372;50.582;12.250;2023-03-20T19:51:55;99892.94;;;7.73;84.74
39699;BME280;25372;50.582;12.250;2023-03-20T20:02:18;99885.44;;;6.95;87.05
39699;BME280;25372;50.582;12.250;2023-03-20T20:12:39;99882.03;;;6.93;87.01
39699;BME280;25372;50.582;12.250;2023-03-20T20:23:00;99874.13;;;6.57;87.35
39699;BME280;25372;50.582;12.250;2023-03-20T20:33:22;99867.06;;;6.21;88.32
39699;BME280;25372;50.582;12.250;2023-03-20T20:43:45;99864.81;;;6.52;88.75
39699;BME280;25372;50.582;12.250;2023-03-20T20:54:06;99869.69;;;6.96;87.83
39699;BME280;25372;50.582;12.250;2023-03-20T21:04:29;99869.66;;;7.33;85.68
39699;BME280;25372;50.582;12.250;2023-03-20T21:14:50;99863.75;;;7.30;85.59
39699;BME280;25372;50.582;12.250;2023-03-20T21:25:12;99871.44;;;7.50;84.76
39699;BME280;25372;50.582;12.250;2023-03-20T21:35:35;99872.03;;;7.73;83.57
39699;BME280;25372;50.582;12.250;2023-03-20T21:46:00;99871.75;;;7.62;84.70
39699;BME280;25372;50.582;12.250;2023-03-20T21:56:21;99876.44;;;7.55;86.27
39699;BME280;25372;50.582;12.250;2023-03-20T22:06:43;99888.88;;;7.67;85.24
39699;BME280;25372;50.582;12.250;2023-03-20T22:17:04;99885.56;;;7.64;85.80
39699;BME280;25372;50.582;12.250;2023-03-20T22:27:26;99895.03;;;7.66;85.97
39699;BME280;25372;50.582;12.250;2023-03-20T22:37:47;99905.63;;;7.46;86.31
39699;BME280;25372;50.582;12.250;2023-03-20T22:48:09;99909.78;;;7.67;85.16
39699;BME280;25372;50.582;12.250;2023-03-20T22:58:29;99889.03;;;7.64;85.54
39699;BME280;25372;50.582;12.250;2023-03-20T23:08:52;99885.56;;;7.64;85.18
39699;BME280;25372;50.582;12.250;2023-03-20T23:19:14;99887.41;;;7.62;85.36
39699;BME280;25372;50.582;12.250;2023-03-20T23:29:36;99886.44;;;7.64;85.74
39699;BME280;25372;50.582;12.250;2023-03-20T23:39:57;99888.34;;;7.61;85.64
39699;BME280;25372;50.582;12.250;2023-03-20T23:50:20;99884.97;;;7.59;85.29
